Aérodrome :
LOGIN :

S'inscrire | Disclaimer

   EN    FR    IT 

 










Légende :    VFR   VFR Marginal   IFR   IFR Intensif   IFR Très Intensif
Visi : 
Plafond : 
>= 8 km
>= 3000ft
5 à 8 km
1000 à 3000 ft
1500m à 5 km
500 à 1000 ft
800 à 1500m
200 à 500 ft
< 800m
< 200 ft
Symboles :   Orages  Brouillard  Fortes neiges  Fortes précipitations  Vent > 20 kt
SIGMETs :   Divers  Orages  Givrage  Turbulence  Onde Orograph.  Cendres Volcan.






- Altitude de l'aérodrome : 423 ft
- Code IATA : PIS


LFBI - Poitiers

DERNIER METAR :
  • 021730Z AUTO 17003KT CAVOK 27/07 Q1018 BECMG 30010KT

METARs EXPIRÉS :
  • 021700Z AUTO VRB03KT CAVOK 28/09 Q1018 NOSIG
  • 021630Z AUTO VRB02KT CAVOK 27/08 Q1018 NOSIG
  • 021600Z AUTO 20005KT 150V240 CAVOK 27/08 Q1018 NOSIG
  • 021530Z AUTO 34004KT 270V070 CAVOK 27/10 Q1019 NOSIG
  • 021500Z AUTO 28003KT 200V320 CAVOK 27/09 Q1019 NOSIG

TAF TAF LFBI
Valide du 02 à 18h jusqu'au 03 à 18h UTC


021700Z 0218/0318 24005KT CAVOK
BECMG 0219/0221 30010KT
BECMG 0305/0307 36010KT



MET'MAP, la Météo Aéronautique d'un coup d'oeil ! - Copyright ORBIFLY Décembre 2007 - Disclaimer

ORBIFLY MET'MAP TEAM :

Programmation & Développement : Alexandra Zaïnal
Sur une idée originale de : Baudouin d'Aumeries
Soutien technique & logistique : Manuel Goepfert
Assistance : Marc-Olivier Méhu




SOURCES & CREDITS :

   NOAA